Time;durP1;ratioP1;P1;durP2;ratioP2;P2;SDS_P1;SDS_P2;PMS_P1;PMS_P2;Temp;Humidity;BMP_temperature;BMP_pressure;BME280_temperature;BME280_humidity;BME280_pressure;Samples;Min_cycle;Max_cycle;Signal;HPM_P1;HPM_P2
2021/01/03 00:01:53;;;;;;;31.75;26.58;;;17.70;36.80;;;;;;4981283;28;20026;-55
2021/01/03 00:04:19;;;;;;;34.17;29.25;;;17.70;36.70;;;;;;4989681;28;20477;-53
2021/01/03 00:06:48;;;;;;;35.10;28.80;;;17.60;36.80;;;;;;4976056;28;20107;-54
2021/01/03 00:09:14;;;;;;;29.20;25.75;;;17.60;36.90;;;;;;4976259;28;20035;-54
2021/01/03 00:11:40;;;;;;;31.85;27.25;;;17.60;36.70;;;;;;4992623;28;20033;-54
2021/01/03 00:14:07;;;;;;;31.83;27.27;;;17.60;36.90;;;;;;4973398;28;20049;-54
2021/01/03 00:16:33;;;;;;;33.13;27.40;;;17.60;36.90;;;;;;4994636;28;20062;-54
2021/01/03 00:18:59;;;;;;;33.45;27.00;;;17.60;36.90;;;;;;4997574;28;20104;-54
2021/01/03 00:21:25;;;;;;;29.48;25.55;;;17.50;36.90;;;;;;4994459;28;20507;-54
2021/01/03 00:23:51;;;;;;;29.38;23.65;;;17.50;36.90;;;;;;4990415;28;20406;-54
2021/01/03 00:26:17;;;;;;;29.50;24.77;;;17.50;36.80;;;;;;4966600;28;20074;-54
2021/01/03 00:28:43;;;;;;;26.05;22.40;;;17.50;37.10;;;;;;4999480;28;20106;-54
2021/01/03 00:31:10;;;;;;;29.55;25.17;;;17.50;37.00;;;;;;4990724;28;20100;-53
2021/01/03 00:33:36;;;;;;;27.40;24.20;;;17.40;37.00;;;;;;4987813;28;20033;-54
2021/01/03 00:36:04;;;;;;;27.73;20.23;;;17.40;37.10;;;;;;4999907;28;20085;-54
2021/01/03 00:38:30;;;;;;;28.35;23.05;;;17.40;37.00;;;;;;4989225;28;20038;-54
2021/01/03 00:40:56;;;;;;;26.40;23.10;;;17.40;37.20;;;;;;4958096;28;20054;-54
2021/01/03 00:43:22;;;;;;;26.20;20.88;;;17.40;37.20;;;;;;4987227;28;20046;-54
2021/01/03 00:45:48;;;;;;;24.90;21.55;;;17.40;37.10;;;;;;4994185;28;20022;-54
2021/01/03 00:48:14;;;;;;;25.63;21.10;;;17.40;37.10;;;;;;4988815;28;20101;-54
2021/01/03 00:50:40;;;;;;;25.00;20.63;;;17.30;37.10;;;;;;4975188;28;20138;-54
2021/01/03 00:53:06;;;;;;;23.80;20.55;;;17.40;37.30;;;;;;4994420;28;20575;-54
2021/01/03 00:55:32;;;;;;;22.42;19.77;;;17.30;37.30;;;;;;4971986;28;20050;-55
2021/01/03 00:57:58;;;;;;;24.00;20.55;;;17.30;37.30;;;;;;4993786;28;20097;-54
2021/01/03 01:00:30;;;;;;;23.20;20.50;;;17.30;37.40;;;;;;4983131;28;20031;-54
2021/01/03 01:02:57;;;;;;;23.20;19.50;;;17.30;37.50;;;;;;4990969;28;20022;-55
2021/01/03 01:05:23;;;;;;;24.95;20.20;;;17.30;37.50;;;;;;4976673;28;20066;-54
2021/01/03 01:07:50;;;;;;;21.80;19.50;;;17.30;37.50;;;;;;4996521;28;20018;-54
2021/01/03 01:10:22;;;;;;;23.63;19.73;;;17.30;37.50;;;;;;4985663;28;20481;-53
2021/01/03 01:12:49;;;;;;;23.25;19.15;;;17.20;37.60;;;;;;4996022;28;20056;-53
2021/01/03 01:15:19;;;;;;;21.35;19.08;;;17.10;37.50;;;;;;4990932;28;20035;-53
2021/01/03 01:17:47;;;;;;;21.60;18.75;;;17.20;37.60;;;;;;4994099;28;20483;-53
2021/01/03 01:20:15;;;;;;;22.20;18.20;;;17.20;37.60;;;;;;4991753;28;20019;-53
2021/01/03 01:22:42;;;;;;;17.92;15.95;;;17.20;37.60;;;;;;4991275;28;20354;-53
2021/01/03 01:25:09;;;;;;;20.58;18.38;;;17.20;37.40;;;;;;4989626;28;20039;-53
2021/01/03 01:27:35;;;;;;;17.35;15.23;;;17.20;37.60;;;;;;4994555;28;20481;-53
2021/01/03 01:30:02;;;;;;;19.23;16.63;;;17.10;37.50;;;;;;4977155;28;20034;-53
2021/01/03 01:32:28;;;;;;;19.65;15.35;;;17.10;37.60;;;;;;4990416;28;20129;-53
2021/01/03 01:34:54;;;;;;;18.10;15.10;;;17.10;37.50;;;;;;4990296;28;20118;-53
2021/01/03 01:37:21;;;;;;;18.98;16.35;;;17.10;37.50;;;;;;4972124;28;20035;-53
2021/01/03 01:39:49;;;;;;;17.35;14.98;;;17.10;37.50;;;;;;4988867;28;20033;-53
2021/01/03 01:42:19;;;;;;;14.95;12.63;;;17.10;37.60;;;;;;4996317;28;20090;-53
2021/01/03 01:44:46;;;;;;;17.48;15.20;;;17.10;38.20;;;;;;4996346;28;20503;-53
2021/01/03 01:47:21;;;;;;;15.73;13.68;;;17.00;37.70;;;;;;4989658;28;20125;-53
2021/01/03 01:49:48;;;;;;;18.10;14.32;;;17.00;37.80;;;;;;4990176;28;20362;-53
2021/01/03 01:52:17;;;;;;;15.45;13.18;;;17.00;37.70;;;;;;4998125;28;20030;-53
2021/01/03 01:54:50;;;;;;;16.15;13.63;;;17.00;37.70;;;;;;4987573;28;20043;-53
2021/01/03 01:57:46;;;;;;;14.63;13.02;;;17.00;37.70;;;;;;4994200;28;20045;-53
2021/01/03 02:00:34;;;;;;;15.10;12.00;;;17.00;37.80;;;;;;4992429;28;20145;-53
2021/01/03 02:03:16;;;;;;;13.23;11.60;;;17.00;37.70;;;;;;4994214;28;20354;-53
2021/01/03 02:05:57;;;;;;;12.48;10.90;;;17.00;37.80;;;;;;4989561;28;20032;-53
2021/01/03 02:08:37;;;;;;;12.52;11.27;;;16.90;37.80;;;;;;4968732;28;20043;-53
2021/01/03 02:11:10;;;;;;;13.20;11.00;;;16.90;37.80;;;;;;4990882;28;20038;-54
2021/01/03 02:13:45;;;;;;;12.75;11.38;;;16.90;37.50;;;;;;4985043;28;20079;-53
2021/01/03 02:16:18;;;;;;;12.93;11.50;;;16.90;37.70;;;;;;4969628;28;20046;-53
2021/01/03 02:18:46;;;;;;;12.30;9.88;;;16.90;38.00;;;;;;4988612;28;20026;-53
2021/01/03 02:21:19;;;;;;;13.63;10.32;;;16.90;37.90;;;;;;4991853;28;20030;-53
2021/01/03 02:23:45;;;;;;;12.27;9.45;;;16.90;38.00;;;;;;4991677;28;20096;-53
2021/01/03 02:26:13;;;;;;;10.60;9.50;;;16.90;37.80;;;;;;4993745;28;20130;-53
2021/01/03 02:28:42;;;;;;;10.50;9.40;;;16.90;37.80;;;;;;4986577;28;20493;-53
2021/01/03 02:31:10;;;;;;;9.50;8.38;;;16.80;37.70;;;;;;4972889;28;20042;-53
2021/01/03 02:33:48;;;;;;;11.65;9.43;;;16.80;37.60;;;;;;4993720;28;20128;-53
2021/01/03 02:36:26;;;;;;;10.50;8.68;;;16.80;37.90;;;;;;5000291;28;20032;-53
2021/01/03 02:39:06;;;;;;;9.75;8.75;;;16.80;37.70;;;;;;4985476;28;20445;-53
2021/01/03 02:41:32;;;;;;;10.30;8.65;;;16.70;37.90;;;;;;4995523;28;20429;-53
2021/01/03 02:43:58;;;;;;;9.63;7.95;;;16.70;37.70;;;;;;4995078;28;20025;-53
2021/01/03 02:46:24;;;;;;;9.02;7.97;;;16.70;37.70;;;;;;4986591;28;20109;-53
2021/01/03 02:48:51;;;;;;;8.40;7.60;;;16.70;38.00;;;;;;4996793;28;20030;-55
2021/01/03 02:51:17;;;;;;;11.93;8.32;;;16.70;38.10;;;;;;4976140;28;20026;-52
2021/01/03 02:53:43;;;;;;;8.68;6.93;;;16.60;38.00;;;;;;4988932;28;20369;-53
2021/01/03 02:56:09;;;;;;;7.82;6.97;;;16.70;37.80;;;;;;4984019;28;20026;-54
2021/01/03 02:58:35;;;;;;;7.68;6.88;;;16.70;37.80;;;;;;4992963;28;20041;-54
2021/01/03 03:01:01;;;;;;;9.80;8.00;;;16.70;37.90;;;;;;4975423;28;20035;-53
2021/01/03 03:03:27;;;;;;;9.82;7.45;;;16.60;38.10;;;;;;4993208;28;20106;-54
2021/01/03 03:05:53;;;;;;;9.45;7.18;;;16.60;38.10;;;;;;4991294;28;20497;-53
2021/01/03 03:08:19;;;;;;;6.65;5.75;;;16.70;38.10;;;;;;4987644;28;20053;-54
2021/01/03 03:10:45;;;;;;;8.52;7.25;;;16.60;37.60;;;;;;4985722;28;20031;-54
2021/01/03 03:13:11;;;;;;;7.63;6.43;;;16.60;37.90;;;;;;4985072;28;20034;-53
2021/01/03 03:15:38;;;;;;;7.15;5.85;;;16.60;38.10;;;;;;4989352;28;20038;-54
2021/01/03 03:18:04;;;;;;;7.40;6.15;;;16.60;37.80;;;;;;4990376;28;20031;-53
2021/01/03 03:20:30;;;;;;;12.23;6.00;;;16.60;38.70;;;;;;4984279;28;20034;-54
2021/01/03 03:22:56;;;;;;;7.10;6.07;;;16.50;37.90;;;;;;4971834;28;20034;-54
2021/01/03 03:25:23;;;;;;;6.05;4.95;;;16.60;38.10;;;;;;4992163;28;20500;-54
2021/01/03 03:27:49;;;;;;;6.53;5.72;;;16.60;37.90;;;;;;4985810;28;20032;-53
2021/01/03 03:30:18;;;;;;;6.15;5.22;;;16.50;37.90;;;;;;4971016;28;20034;-53
2021/01/03 03:32:50;;;;;;;5.95;5.35;;;16.50;38.10;;;;;;4981831;28;20030;-54
2021/01/03 03:35:16;;;;;;;6.25;5.22;;;16.50;37.80;;;;;;4996108;28;20027;-54
2021/01/03 03:37:42;;;;;;;6.13;5.50;;;16.50;38.10;;;;;;4986662;28;20037;-54
2021/01/03 03:40:09;;;;;;;6.13;5.53;;;16.50;38.10;;;;;;4989563;28;20026;-53
2021/01/03 03:42:35;;;;;;;7.00;5.68;;;16.50;38.10;;;;;;4992004;28;20758;-53
2021/01/03 03:45:01;;;;;;;5.70;4.80;;;16.50;38.20;;;;;;4982126;28;20022;-54
2021/01/03 03:47:27;;;;;;;6.55;5.05;;;16.50;38.30;;;;;;4988153;28;20109;-53
2021/01/03 03:49:55;;;;;;;5.95;5.13;;;16.40;38.30;;;;;;4989123;28;20054;-53
2021/01/03 03:52:21;;;;;;;5.10;4.55;;;16.50;38.40;;;;;;4982610;28;20132;-53
2021/01/03 03:54:47;;;;;;;5.00;4.03;;;16.40;38.20;;;;;;4965554;28;20050;-53
2021/01/03 03:57:13;;;;;;;5.38;4.40;;;16.40;38.00;;;;;;4992381;28;20031;-54
2021/01/03 03:59:39;;;;;;;4.90;4.32;;;16.40;38.20;;;;;;4990358;28;20031;-53
2021/01/03 04:02:05;;;;;;;5.63;4.78;;;16.40;38.10;;;;;;4992238;28;20033;-53
2021/01/03 04:04:31;;;;;;;5.07;4.28;;;16.40;38.20;;;;;;4981936;28;20035;-53
2021/01/03 04:06:57;;;;;;;4.18;3.67;;;16.40;38.30;;;;;;4977804;28;20031;-54
2021/01/03 04:09:24;;;;;;;6.88;4.30;;;16.40;38.40;;;;;;4990285;28;20057;-54
2021/01/03 04:11:51;;;;;;;4.55;4.03;;;16.40;38.30;;;;;;4988545;28;20113;-54
2021/01/03 04:14:21;;;;;;;5.03;3.88;;;16.30;38.10;;;;;;4988531;28;20393;-53
2021/01/03 04:16:49;;;;;;;4.35;3.72;;;16.30;38.20;;;;;;4992321;28;20045;-54
2021/01/03 04:19:15;;;;;;;4.95;3.67;;;16.40;38.10;;;;;;4986693;28;20404;-54
2021/01/03 04:21:42;;;;;;;5.18;4.20;;;16.30;38.20;;;;;;4986367;28;20536;-53
2021/01/03 04:24:09;;;;;;;5.85;3.70;;;16.30;38.20;;;;;;4990387;28;20030;-53
2021/01/03 04:26:35;;;;;;;4.05;3.53;;;16.30;38.20;;;;;;4987134;28;20068;-53
2021/01/03 04:29:02;;;;;;;5.07;3.47;;;16.30;38.10;;;;;;4987560;28;20054;-54
2021/01/03 04:31:28;;;;;;;3.83;3.47;;;16.20;38.30;;;;;;4950113;28;20454;-53
2021/01/03 04:33:54;;;;;;;4.75;3.40;;;16.30;38.20;;;;;;4986148;28;20039;-53
2021/01/03 04:36:20;;;;;;;4.05;3.28;;;16.30;38.30;;;;;;4987149;28;20023;-53
2021/01/03 04:38:47;;;;;;;3.78;3.20;;;16.20;38.40;;;;;;4990636;28;20033;-53
2021/01/03 04:41:22;;;;;;;4.93;3.35;;;16.30;38.40;;;;;;4983181;28;20382;-53
2021/01/03 04:43:49;;;;;;;3.67;3.38;;;16.20;38.50;;;;;;4985539;28;20027;-53
2021/01/03 04:46:20;;;;;;;4.82;3.40;;;16.20;38.30;;;;;;4986494;28;20498;-54
2021/01/03 04:48:50;;;;;;;2.95;2.65;;;16.20;38.40;;;;;;4974700;28;20031;-53
2021/01/03 04:51:24;;;;;;;3.92;3.17;;;16.20;37.80;;;;;;4989818;28;20114;-53
2021/01/03 04:54:04;;;;;;;3.90;2.70;;;16.20;38.40;;;;;;4990353;28;20397;-54
2021/01/03 04:56:49;;;;;;;4.85;3.00;;;16.20;38.40;;;;;;4998160;28;20105;-53
2021/01/03 04:59:15;;;;;;;4.68;2.88;;;16.10;38.30;;;;;;4996950;28;20030;-53
2021/01/03 05:01:53;;;;;;;2.70;2.50;;;16.10;37.80;;;;;;4997202;28;20026;-54
2021/01/03 05:04:25;;;;;;;3.65;2.70;;;16.10;37.80;;;;;;4988930;28;20183;-53
2021/01/03 05:06:54;;;;;;;3.13;2.42;;;16.10;38.20;;;;;;4967248;28;20358;-53
2021/01/03 05:09:21;;;;;;;2.53;2.03;;;16.10;38.40;;;;;;4960580;28;20039;-54
2021/01/03 05:12:07;;;;;;;3.17;2.22;;;16.00;38.10;;;;;;4974381;28;20424;-53
2021/01/03 05:14:42;;;;;;;2.83;2.10;;;16.00;38.20;;;;;;4993406;28;20088;-53
2021/01/03 05:17:08;;;;;;;3.13;2.30;;;16.00;38.30;;;;;;4974030;28;20484;-53
2021/01/03 05:19:34;;;;;;;3.92;2.20;;;16.00;38.10;;;;;;4994172;28;20061;-53
2021/01/03 05:22:00;;;;;;;2.90;2.03;;;16.00;38.00;;;;;;4991994;28;20062;-53
2021/01/03 05:24:28;;;;;;;3.50;2.72;;;16.00;37.70;;;;;;4987780;28;20026;-53
2021/01/03 05:26:56;;;;;;;2.15;1.90;;;16.00;38.20;;;;;;4987059;28;20397;-53
2021/01/03 05:29:28;;;;;;;3.05;2.20;;;15.90;38.00;;;;;;4967877;28;20393;-54
2021/01/03 05:32:06;;;;;;;2.95;2.13;;;15.90;38.30;;;;;;4991693;28;20018;-54
2021/01/03 05:34:34;;;;;;;2.45;2.10;;;15.90;38.10;;;;;;4987418;28;20123;-54
2021/01/03 05:37:21;;;;;;;3.05;2.10;;;15.90;38.30;;;;;;4972137;28;20023;-53
2021/01/03 05:39:48;;;;;;;2.38;2.00;;;15.90;38.30;;;;;;4985171;28;20039;-54
2021/01/03 05:42:20;;;;;;;2.65;2.22;;;15.90;38.40;;;;;;4995005;28;20392;-54
2021/01/03 05:45:07;;;;;;;3.20;2.33;;;15.90;38.30;;;;;;4992434;28;20395;-53
2021/01/03 05:47:33;;;;;;;2.20;1.88;;;15.80;38.40;;;;;;4977378;28;20049;-53
2021/01/03 05:50:35;;;;;;;2.97;2.60;;;15.90;38.40;;;;;;4981783;28;20018;-53
2021/01/03 05:53:27;;;;;;;2.03;1.83;;;15.80;38.30;;;;;;4976078;28;20045;-53
2021/01/03 05:56:12;;;;;;;3.47;1.85;;;15.80;38.50;;;;;;4981140;28;20038;-53
2021/01/03 05:58:44;;;;;;;2.72;2.00;;;15.80;38.40;;;;;;4986419;28;20035;-53
2021/01/03 06:01:23;;;;;;;2.15;1.90;;;15.80;38.20;;;;;;4985621;28;20027;-53
2021/01/03 06:04:19;;;;;;;2.95;2.08;;;15.80;38.60;;;;;;4954306;28;20085;-53
2021/01/03 06:06:51;;;;;;;4.05;2.33;;;15.80;38.50;;;;;;4987571;28;20054;-53
2021/01/03 06:09:21;;;;;;;2.42;1.90;;;15.80;38.60;;;;;;4967813;28;20045;-54
2021/01/03 06:12:04;;;;;;;2.92;2.15;;;15.80;38.60;;;;;;4992218;28;20412;-53
2021/01/03 06:14:31;;;;;;;2.60;1.80;;;15.80;38.40;;;;;;4972766;28;20109;-53
2021/01/03 06:17:16;;;;;;;2.70;1.90;;;15.80;38.60;;;;;;4990999;28;20783;-54
2021/01/03 06:19:49;;;;;;;2.22;1.95;;;15.80;38.70;;;;;;4971885;28;20031;-54
2021/01/03 06:22:43;;;;;;;2.80;1.90;;;15.90;38.60;;;;;;4977133;28;20102;-54
2021/01/03 06:25:27;;;;;;;3.47;2.05;;;15.80;38.70;;;;;;4987544;28;20535;-54
2021/01/03 06:28:05;;;;;;;2.03;1.75;;;15.80;38.70;;;;;;4988789;28;20033;-54
2021/01/03 06:30:33;;;;;;;2.08;1.88;;;15.80;38.90;;;;;;4992069;28;20029;-54
2021/01/03 06:33:17;;;;;;;3.03;1.70;;;15.80;38.90;;;;;;4974615;28;20034;-54
2021/01/03 06:35:57;;;;;;;2.75;2.20;;;15.80;38.90;;;;;;4982835;28;20030;-54
2021/01/03 06:38:57;;;;;;;2.40;2.20;;;15.80;38.80;;;;;;4983569;28;20084;-55
2021/01/03 06:41:44;;;;;;;4.32;2.33;;;15.80;38.90;;;;;;4986237;28;20103;-55
2021/01/03 06:44:47;;;;;;;2.70;1.65;;;15.80;39.00;;;;;;4997449;28;20026;-54
2021/01/03 06:47:21;;;;;;;2.53;1.77;;;15.80;38.60;;;;;;4915241;29;20507;-54
2021/01/03 06:50:08;;;;;;;2.58;1.92;;;15.70;38.70;;;;;;4933888;29;20036;-54
2021/01/03 06:52:49;;;;;;;2.47;1.83;;;15.70;38.80;;;;;;4933794;29;20032;-54
2021/01/03 06:55:39;;;;;;;1.77;1.60;;;15.70;39.10;;;;;;4907597;29;20043;-54
2021/01/03 06:58:29;;;;;;;2.28;1.77;;;15.70;38.70;;;;;;4933516;29;20031;-54
2021/01/03 07:01:00;;;;;;;3.33;1.98;;;15.70;39.00;;;;;;4933566;29;20607;-54
2021/01/03 07:03:33;;;;;;;3.35;1.75;;;15.70;38.90;;;;;;4934723;29;20047;-54
2021/01/03 07:06:06;;;;;;;1.85;1.58;;;15.70;38.80;;;;;;4930439;28;20095;-54
2021/01/03 07:09:06;;;;;;;1.48;1.38;;;15.70;38.70;;;;;;4933246;29;20376;-54
2021/01/03 07:11:47;;;;;;;2.80;1.67;;;15.60;38.90;;;;;;4919531;29;20166;-54
2021/01/03 07:14:36;;;;;;;3.35;2.03;;;15.60;39.00;;;;;;4933026;29;20052;-54
2021/01/03 07:17:04;;;;;;;1.98;1.77;;;15.60;38.80;;;;;;4923989;29;20047;-54
2021/01/03 07:19:29;;;;;;;3.42;1.70;;;15.60;38.90;;;;;;4917380;29;20032;-54
2021/01/03 07:22:02;;;;;;;2.17;1.63;;;15.60;38.80;;;;;;4980401;28;20042;-54
2021/01/03 07:24:46;;;;;;;1.92;1.60;;;15.50;38.80;;;;;;4987983;28;20045;-54
2021/01/03 07:27:36;;;;;;;1.92;1.50;;;15.50;39.30;;;;;;4987067;28;20550;-54
2021/01/03 07:30:02;;;;;;;1.70;1.60;;;15.50;38.40;;;;;;4988885;28;20033;-54
2021/01/03 07:32:50;;;;;;;2.70;2.22;;;15.50;38.30;;;;;;4985327;28;20030;-54
2021/01/03 07:35:19;;;;;;;39.53;34.00;;;15.40;38.40;;;;;;4988566;28;20036;-54
2021/01/03 07:37:46;;;;;;;21.58;16.15;;;15.50;38.40;;;;;;4989826;28;20041;-54
2021/01/03 07:40:25;;;;;;;22.50;18.48;;;15.40;38.00;;;;;;4988431;28;20030;-54
2021/01/03 07:42:51;;;;;;;21.85;18.25;;;15.40;38.20;;;;;;4973509;28;20019;-54
2021/01/03 07:45:39;;;;;;;22.95;18.38;;;15.40;38.40;;;;;;4987518;28;20022;-53
2021/01/03 07:48:36;;;;;;;19.08;15.32;;;15.30;38.50;;;;;;4989425;28;20105;-53
2021/01/03 07:51:04;;;;;;;19.33;16.17;;;15.30;38.50;;;;;;4988845;28;20381;-55
2021/01/03 07:53:36;;;;;;;20.00;16.58;;;15.30;38.50;;;;;;4986598;28;20109;-54
2021/01/03 07:56:25;;;;;;;17.90;14.85;;;15.30;38.60;;;;;;4986636;28;20030;-54
2021/01/03 07:58:56;;;;;;;18.23;15.57;;;15.30;38.60;;;;;;4988574;28;20386;-53
2021/01/03 08:01:31;;;;;;;16.60;14.82;;;15.30;38.90;;;;;;4985599;28;20477;-53
2021/01/03 08:03:57;;;;;;;15.48;13.07;;;15.30;38.50;;;;;;4964926;28;20032;-53
2021/01/03 08:06:23;;;;;;;19.40;15.38;;;15.30;38.50;;;;;;4994988;28;20030;-53
2021/01/03 08:08:55;;;;;;;19.38;16.20;;;15.30;38.80;;;;;;4995635;28;20063;-53
2021/01/03 08:11:40;;;;;;;38.78;31.90;;;15.30;38.10;;;;;;4982010;28;20481;-54
2021/01/03 08:14:18;;;;;;;47.17;41.33;;;15.30;38.40;;;;;;4986921;28;20022;-53
2021/01/03 08:16:44;;;;;;;48.05;39.05;;;15.30;38.70;;;;;;4971313;28;20030;-53
2021/01/03 08:19:10;;;;;;;55.28;44.67;;;15.30;38.60;;;;;;4971357;28;20026;-53
2021/01/03 08:21:39;;;;;;;51.78;44.03;;;15.30;38.90;;;;;;4967240;28;20019;-54
2021/01/03 08:24:07;;;;;;;59.53;48.53;;;15.30;38.70;;;;;;4988012;28;20022;-54
2021/01/03 08:26:39;;;;;;;67.47;55.50;;;15.30;38.80;;;;;;4992566;28;20392;-53
2021/01/03 08:29:14;;;;;;;78.22;66.03;;;15.30;39.00;;;;;;4993026;28;20026;-53
2021/01/03 08:31:54;;;;;;;66.25;56.05;;;15.30;39.20;;;;;;4991377;28;20022;-54
2021/01/03 08:34:33;;;;;;;71.07;60.70;;;15.30;39.00;;;;;;4990573;28;20038;-53
2021/01/03 08:36:59;;;;;;;76.70;65.82;;;15.30;39.20;;;;;;4986676;28;20089;-53
2021/01/03 08:39:29;;;;;;;67.53;56.65;;;15.40;39.60;;;;;;4973542;28;20354;-55
2021/01/03 08:42:03;;;;;;;73.32;62.45;;;15.40;39.50;;;;;;4987914;28;20019;-55
2021/01/03 08:44:35;;;;;;;70.53;57.97;;;15.40;39.90;;;;;;4989250;28;20027;-54
2021/01/03 08:47:09;;;;;;;67.68;56.50;;;15.40;39.80;;;;;;4979666;28;20034;-52
2021/01/03 08:49:35;;;;;;;70.30;57.08;;;15.40;39.90;;;;;;4987621;28;20090;-54
2021/01/03 08:52:06;;;;;;;66.53;54.45;;;15.50;39.90;;;;;;4985797;28;20185;-54
2021/01/03 08:54:32;;;;;;;59.97;50.67;;;15.50;39.90;;;;;;4980590;28;20031;-54
2021/01/03 08:57:01;;;;;;;44.60;37.88;;;15.50;39.80;;;;;;4972860;28;20030;-60
2021/01/03 08:59:28;;;;;;;46.97;38.53;;;15.50;39.50;;;;;;4989010;28;20026;-55
2021/01/03 09:01:54;;;;;;;38.88;29.92;;;15.50;39.20;;;;;;4984902;28;20034;-55
2021/01/03 09:04:22;;;;;;;43.78;38.22;;;15.50;38.70;;;;;;4985640;28;20468;-54
2021/01/03 09:06:53;;;;;;;51.20;43.50;;;15.50;39.70;;;;;;4975652;28;20022;-55
2021/01/03 09:09:24;;;;;;;46.38;35.33;;;15.50;39.40;;;;;;4973624;28;20092;-53
2021/01/03 09:12:04;;;;;;;33.60;28.60;;;15.60;38.40;;;;;;4973429;28;20026;-53
2021/01/03 09:14:47;;;;;;;39.60;34.70;;;15.60;38.50;;;;;;4973796;28;20030;-53
2021/01/03 09:17:23;;;;;;;49.80;39.17;;;15.60;38.80;;;;;;4991912;28;20038;-55
2021/01/03 09:20:24;;;;;;;47.45;39.75;;;15.60;38.30;;;;;;4974236;28;20031;-61
2021/01/03 09:23:04;;;;;;;49.08;43.03;;;15.70;38.90;;;;;;4986146;28;20104;-60
2021/01/03 09:25:35;;;;;;;43.30;38.22;;;15.90;39.00;;;;;;4991345;28;20042;-54
2021/01/03 09:28:27;;;;;;;51.80;43.95;;;16.00;38.90;;;;;;4973674;28;20149;-54
2021/01/03 09:31:17;;;;;;;44.22;36.00;;;16.30;38.80;;;;;;4969437;28;20042;-54
2021/01/03 09:34:09;;;;;;;50.45;39.60;;;16.50;39.10;;;;;;4979682;28;20042;-54
2021/01/03 09:37:12;;;;;;;43.67;37.47;;;16.70;38.40;;;;;;4992232;28;20030;-54
2021/01/03 09:39:47;;;;;;;42.65;34.92;;;17.00;38.40;;;;;;4990953;28;20065;-56
2021/01/03 09:42:37;;;;;;;39.50;34.25;;;17.10;38.30;;;;;;4973303;28;20034;-55
2021/01/03 09:45:36;;;;;;;38.08;32.58;;;17.30;37.80;;;;;;4955258;28;20038;-55
2021/01/03 09:48:03;;;;;;;37.72;32.70;;;17.40;37.70;;;;;;4989908;28;20029;-56
2021/01/03 09:50:45;;;;;;;32.13;27.77;;;17.60;37.40;;;;;;4996726;28;20041;-56
2021/01/03 09:53:20;;;;;;;31.95;27.15;;;17.70;36.80;;;;;;4975021;28;20034;-55
2021/01/03 09:55:54;;;;;;;28.30;23.00;;;17.80;36.60;;;;;;4985162;28;20038;-54
2021/01/03 09:58:21;;;;;;;27.48;23.08;;;17.90;36.30;;;;;;4987344;28;20450;-56
2021/01/03 10:00:56;;;;;;;30.02;22.20;;;18.00;36.50;;;;;;4988826;28;20023;-57
2021/01/03 10:03:40;;;;;;;23.40;20.27;;;18.10;36.20;;;;;;4988420;28;20121;-54
2021/01/03 10:06:18;;;;;;;30.42;20.65;;;18.20;36.40;;;;;;4990772;28;20512;-55
2021/01/03 10:08:45;;;;;;;26.40;20.50;;;18.30;36.00;;;;;;4982343;28;20034;-56
2021/01/03 10:11:27;;;;;;;23.08;18.08;;;18.40;36.00;;;;;;4971801;28;20027;-55
2021/01/03 10:13:56;;;;;;;21.05;16.73;;;18.50;36.00;;;;;;4990754;28;20053;-56
2021/01/03 10:16:26;;;;;;;19.65;16.10;;;18.60;35.70;;;;;;4988877;28;20096;-56
2021/01/03 10:18:54;;;;;;;19.17;15.25;;;18.70;35.50;;;;;;4966193;28;20030;-55
2021/01/03 10:21:34;;;;;;;18.13;13.48;;;18.70;35.70;;;;;;4971163;28;20022;-55
2021/01/03 10:24:25;;;;;;;14.67;13.10;;;18.80;35.30;;;;;;4981772;28;20015;-55
2021/01/03 10:27:03;;;;;;;13.68;11.30;;;18.90;35.20;;;;;;4989295;28;20933;-55
2021/01/03 10:29:29;;;;;;;11.88;8.73;;;19.00;34.90;;;;;;4988591;28;20049;-54
2021/01/03 10:31:55;;;;;;;9.73;8.27;;;19.10;34.40;;;;;;4977994;28;20503;-55
2021/01/03 10:34:22;;;;;;;13.98;7.80;;;19.10;34.20;;;;;;4982575;28;20473;-57
2021/01/03 10:36:51;;;;;;;9.95;8.77;;;19.20;34.10;;;;;;4983571;28;20108;-54
2021/01/03 10:39:17;;;;;;;10.73;7.63;;;19.20;34.10;;;;;;4990911;28;20334;-56
2021/01/03 10:41:43;;;;;;;8.23;6.88;;;19.30;33.90;;;;;;4987074;28;20058;-55
2021/01/03 10:44:11;;;;;;;8.10;6.63;;;19.40;34.10;;;;;;4981005;28;20033;-53
2021/01/03 10:46:38;;;;;;;8.93;6.43;;;19.40;33.70;;;;;;4995980;28;20172;-55
2021/01/03 10:49:05;;;;;;;11.25;8.40;;;19.50;33.70;;;;;;4994682;28;20026;-55
2021/01/03 10:51:40;;;;;;;10.60;7.90;;;19.60;33.80;;;;;;4982341;28;20015;-55
2021/01/03 10:54:08;;;;;;;11.68;8.05;;;19.70;33.40;;;;;;4983740;28;20026;-52
2021/01/03 10:56:34;;;;;;;11.75;8.02;;;19.80;33.40;;;;;;4990951;28;20045;-55
2021/01/03 10:59:01;;;;;;;15.23;8.52;;;19.90;33.10;;;;;;4988823;28;20105;-50
2021/01/03 11:01:27;;;;;;;12.00;8.55;;;20.00;33.20;;;;;;4986657;28;20102;-49
2021/01/03 11:03:53;;;;;;;18.70;12.32;;;20.10;32.40;;;;;;4989565;28;20093;-49
2021/01/03 11:06:19;;;;;;;18.80;14.15;;;20.30;32.70;;;;;;4989305;28;20019;-49
2021/01/03 11:08:46;;;;;;;21.02;16.30;;;20.40;32.10;;;;;;4983562;28;20030;-49
2021/01/03 11:11:21;;;;;;;15.63;13.93;;;20.70;31.70;;;;;;4990269;28;20052;-49
2021/01/03 11:13:47;;;;;;;16.08;14.05;;;20.80;30.60;;;;;;4985844;28;20500;-50
2021/01/03 11:16:13;;;;;;;30.35;15.40;;;20.90;30.60;;;;;;4987864;28;20038;-50
2021/01/03 11:18:39;;;;;;;18.35;12.25;;;21.10;30.40;;;;;;4988382;28;20037;-48
2021/01/03 11:21:10;;;;;;;16.52;11.10;;;21.20;30.30;;;;;;4971096;28;20837;-49
2021/01/03 11:23:37;;;;;;;17.77;14.52;;;21.30;30.00;;;;;;4984945;28;20026;-49
2021/01/03 11:26:04;;;;;;;21.88;16.45;;;21.40;30.40;;;;;;4981361;28;20061;-48
2021/01/03 11:28:30;;;;;;;15.18;9.80;;;21.50;30.60;;;;;;4984959;28;20452;-49
2021/01/03 11:30:56;;;;;;;12.40;10.27;;;21.60;30.00;;;;;;4989062;28;20042;-49
2021/01/03 11:33:22;;;;;;;13.18;11.43;;;21.70;30.00;;;;;;4988472;28;20022;-49
2021/01/03 11:35:48;;;;;;;15.52;12.68;;;21.80;29.90;;;;;;4988016;28;20030;-49
2021/01/03 11:38:14;;;;;;;11.80;9.20;;;21.80;29.80;;;;;;4991352;28;20762;-49
2021/01/03 11:40:40;;;;;;;9.98;8.98;;;22.00;29.30;;;;;;4988063;28;20034;-49
2021/01/03 11:43:06;;;;;;;14.25;12.00;;;22.10;29.40;;;;;;4987285;28;20504;-49
2021/01/03 11:45:32;;;;;;;16.67;10.80;;;22.40;29.70;;;;;;4984232;28;20019;-48
2021/01/03 11:47:58;;;;;;;9.35;7.25;;;22.70;29.40;;;;;;4968950;28;20044;-50
2021/01/03 11:50:25;;;;;;;14.02;8.05;;;23.20;28.70;;;;;;4984777;28;20106;-49
2021/01/03 11:52:51;;;;;;;15.63;7.90;;;23.80;28.20;;;;;;4969516;28;20500;-49
2021/01/03 11:55:19;;;;;;;9.15;6.60;;;24.30;28.10;;;;;;4985215;28;20075;-51
2021/01/03 11:57:46;;;;;;;12.98;9.05;;;25.00;27.60;;;;;;4982931;28;20041;-50
2021/01/03 12:00:15;;;;;;;8.27;5.75;;;25.60;27.90;;;;;;4990516;28;20097;-50
2021/01/03 12:02:42;;;;;;;9.30;5.85;;;26.30;26.60;;;;;;4988521;28;20037;-50
2021/01/03 12:05:10;;;;;;;15.05;13.30;;;27.00;26.50;;;;;;4988658;28;20480;-50
2021/01/03 12:07:36;;;;;;;18.52;15.27;;;27.70;26.30;;;;;;4991562;28;20027;-50
2021/01/03 12:10:02;;;;;;;20.05;17.65;;;28.40;26.20;;;;;;4989205;28;20029;-50
2021/01/03 12:12:31;;;;;;;18.77;16.85;;;29.10;25.90;;;;;;4992472;28;20050;-50
2021/01/03 12:14:57;;;;;;;17.10;15.52;;;29.70;25.70;;;;;;4992739;28;20026;-50
2021/01/03 12:17:23;;;;;;;15.93;14.52;;;30.30;25.40;;;;;;4994094;28;20033;-50
2021/01/03 12:19:50;;;;;;;16.60;14.90;;;31.00;25.10;;;;;;4992264;28;20031;-51
2021/01/03 12:22:17;;;;;;;16.20;14.57;;;31.50;24.70;;;;;;4972771;28;20100;-48
2021/01/03 12:24:44;;;;;;;16.38;14.65;;;32.10;24.60;;;;;;4993083;28;20034;-51
2021/01/03 12:27:11;;;;;;;15.65;13.88;;;32.60;24.40;;;;;;4986557;28;20112;-51
2021/01/03 12:29:37;;;;;;;15.18;13.68;;;33.10;24.10;;;;;;4968030;28;20036;-51
2021/01/03 12:32:06;;;;;;;15.23;13.82;;;33.50;24.00;;;;;;4991136;28;20034;-51
2021/01/03 12:34:32;;;;;;;15.23;13.63;;;33.90;23.60;;;;;;4990696;28;20030;-51
2021/01/03 12:37:06;;;;;;;29.70;26.80;;;34.30;23.60;;;;;;4990692;28;20034;-51
2021/01/03 12:39:32;;;;;;;23.50;21.25;;;34.60;23.00;;;;;;4988377;28;20053;-51
2021/01/03 12:42:00;;;;;;;22.83;20.63;;;35.00;23.00;;;;;;4988628;28;20448;-51
2021/01/03 12:44:26;;;;;;;22.45;20.25;;;35.30;22.70;;;;;;4988734;28;20026;-52
2021/01/03 12:46:52;;;;;;;22.15;20.10;;;35.70;22.80;;;;;;4989369;28;20033;-50
2021/01/03 12:49:18;;;;;;;23.23;20.80;;;35.90;22.60;;;;;;4989913;28;20424;-51
2021/01/03 12:51:45;;;;;;;20.35;18.48;;;36.20;22.50;;;;;;4993368;28;20022;-51
2021/01/03 12:54:11;;;;;;;21.13;19.02;;;36.40;22.30;;;;;;4987547;28;20142;-52
2021/01/03 12:56:37;;;;;;;19.38;17.67;;;36.60;22.10;;;;;;4990569;28;20038;-52
2021/01/03 12:59:03;;;;;;;19.85;17.90;;;36.70;22.00;;;;;;4990546;28;20558;-51